Date,TemperatureHighF,TemperatureAvgF,TemperatureLowF,DewpointHighF,DewpointAvgF,DewpointLowF,HumidityHigh,HumidityAvg,HumidityLow,PressureMaxIn,PressureMinIn,WindSpeedMaxMPH,WindSpeedAvgMPH,GustSpeedMaxMPH,PrecipitationSumIn
2013-1-1,39.2,31.2,17.8,25.9,17.9,6.3,72,58,41,29.54,29.34,14,3,30,0.00
2013-1-2,37.6,19.8,10.2,15.5,9.0,3.8,80,63,39,29.70,29.50,12,1,21,0.00
2013-1-3,31.3,16.4,4.5,12.5,1.5,-7.5,73,54,20,29.73,29.59,7,1,13,0.00
2013-1-4,41.4,29.5,19.4,23.7,19.1,12.0,82,66,47,29.59,29.43,11,2,24,0.00
2013-1-5,47.7,32.8,20.5,25.0,20.4,17.0,87,62,36,29.86,29.47,8,2,19,0.00
2013-1-6,47.7,31.5,21.9,32.4,24.8,18.4,93,78,49,29.82,29.53,8,1,13,0.01
2013-1-7,46.6,30.6,17.2,31.2,21.5,13.7,95,73,30,29.99,29.57,8,1,16,0.00
2013-1-8,50.0,32.6,15.6,30.7,24.6,12.5,93,74,44,29.97,29.88,12,2,22,0.00
2013-1-9,47.5,32.0,19.6,36.3,26.2,17.7,94,81,47,29.99,29.64,8,1,14,0.00
2013-1-10,52.2,39.3,27.5,32.1,24.2,22.0,80,56,32,30.13,29.67,11,2,21,0.01
2013-1-11,39.4,31.8,22.6,36.5,27.2,20.2,97,84,64,30.13,29.80,2,0,4,0.17
2013-1-12,43.7,39.7,36.3,43.4,39.4,35.8,99,99,97,29.82,29.72,4,0,7,0.04
2013-1-13,56.3,46.3,38.1,52.6,45.4,37.9,99,97,85,29.77,29.62,7,1,19,0.01
2013-1-14,66.6,50.5,39.0,54.1,43.2,29.0,99,79,39,29.87,29.50,9,2,20,0.00
2013-1-15,42.3,35.5,30.4,32.8,28.4,25.2,96,76,52,29.92,29.81,8,0,11,0.04
2013-1-16,33.4,32.1,29.8,33.2,30.5,26.3,99,94,78,29.84,29.41,3,0,6,0.00
2013-1-17,46.4,35.6,29.3,35.2,28.2,15.7,99,76,51,29.68,29.45,8,1,18,0.25
2013-1-18,30.9,23.5,15.4,16.8,3.3,-5.1,64,43,23,30.06,29.63,11,2,20,0.00
2013-1-19,48.7,36.6,19.2,33.4,23.6,5.5,84,60,41,29.98,29.50,14,4,24,0.00
2013-1-20,54.9,41.8,27.3,33.2,25.9,8.2,74,55,29,29.53,29.18,17,5,33,0.00
2013-1-21,29.5,24.1,16.3,19.7,11.2,5.6,88,59,38,29.70,29.38,9,1,16,0.00
2013-1-22,27.9,19.7,11.3,19.9,5.9,-6.0,91,58,26,29.68,29.35,13,2,24,0.00
2013-1-23,19.2,10.1,4.5,1.4,-6.0,-10.2,65,48,32,29.74,29.66,10,3,21,0.00
2013-1-24,12.6,2.9,-2.9,-5.5,-8.7,-11.0,73,58,39,29.73,29.68,8,1,15,0.00
2013-1-25,25.9,15.2,7.3,-5.6,-8.3,-10.7,48,35,21,29.91,29.82,8,2,13,0.00
2013-1-26,28.2,16.7,6.4,11.2,2.5,-7.3,84,57,29,29.84,29.59,8,2,14,0.00
2013-1-27,35.4,21.3,5.5,4.7,1.2,-1.5,77,43,21,30.06,29.84,7,1,12,0.00
2013-1-28,32.7,24.5,14.7,26.9,14.8,1.3,95,69,29,30.05,29.59,6,0,11,0.00
2013-1-29,34.3,30.8,26.6,32.6,29.5,25.1,98,95,90,29.78,29.59,0,0,0,0.21
2013-1-30,60.3,49.4,32.9,58.6,48.7,32.4,99,98,92,29.75,29.07,14,3,32,0.15
2013-1-31,60.6,46.8,30.4,60.1,34.4,11.5,99,65,32,29.21,28.62,19,6,39,1.07
2013-2-1,36.1,27.6,20.1,17.6,9.2,3.1,63,46,27,29.69,29.21,11,4,21,0.00
2013-2-2,34.7,23.9,15.3,15.6,7.4,3.3,70,50,31,29.85,29.64,10,2,18,0.00
2013-2-3,32.7,23.8,17.6,21.8,17.6,13.9,87,77,60,29.65,29.38,7,1,12,0.00
2013-2-4,32.0,22.6,15.4,17.4,10.5,4.5,89,62,32,29.55,29.33,8,2,13,0.00
2013-2-5,26.4,23.0,17.4,21.1,15.8,9.9,89,74,63,29.61,29.52,2,0,3,0.00
2013-2-6,42.3,30.3,23.0,27.8,11.7,0.0,92,48,32,29.90,29.51,8,2,16,0.05
2013-2-7,36.5,24.4,13.5,10.5,4.8,-0.4,72,45,23,30.11,29.90,8,1,13,0.00
2013-2-8,32.0,27.7,18.1,31.8,24.1,6.5,99,87,53,30.06,29.14,28,6,46,0.00
2013-2-9,28.0,18.5,14.0,19.9,8.1,1.4,97,64,50,29.80,29.13,13,5,25,0.00
2013-2-10,48.2,23.4,5.2,13.5,1.6,-9.3,80,46,10,29.99,29.80,8,1,15,0.00
2013-2-11,46.9,33.6,12.0,46.7,31.0,7.1,99,90,76,29.94,29.21,8,1,14,0.25
2013-2-12,47.1,38.9,32.4,42.2,28.1,22.3,99,67,43,29.50,29.23,11,2,25,0.00
2013-2-13,50.0,36.1,26.6,26.9,21.7,18.5,81,58,31,29.48,29.28,8,1,11,0.00
2013-2-14,51.6,36.4,26.2,27.1,20.2,12.4,89,57,21,29.60,29.31,10,1,14,0.00
2013-2-15,55.4,38.3,27.1,35.5,29.1,20.8,97,73,40,29.61,29.51,8,1,17,0.00
2013-2-16,37.9,33.6,28.4,32.3,27.4,16.8,96,78,56,29.55,29.28,10,2,19,0.01
2013-2-17,29.8,22.4,18.0,20.3,13.1,-1.5,91,70,31,29.29,29.03,17,5,33,0.00
2013-2-18,34.9,22.6,13.1,-2.6,-6.4,-16.4,47,30,11,29.77,29.33,11,3,18,0.00
2013-2-19,50.7,39.8,16.7,44.2,33.8,-3.0,99,82,35,29.78,29.19,8,1,14,0.21
2013-2-20,40.6,31.9,24.8,39.7,15.8,3.0,98,55,27,29.40,29.16,11,3,24,0.01
2013-2-21,36.3,28.0,23.2,13.3,9.2,5.3,61,46,28,29.81,29.39,12,4,27,0.00
2013-2-22,45.5,31.3,19.2,20.9,16.3,12.6,77,55,29,29.96,29.81,12,1,18,0.00
2013-2-23,38.7,33.3,28.0,27.6,24.3,20.2,73,69,62,29.92,29.69,4,0,11,0.00
2013-2-24,36.1,34.1,32.0,34.8,33.2,31.2,99,96,92,29.48,29.28,7,2,11,0.46
2013-2-25,42.3,34.0,27.7,37.5,29.7,26.6,98,85,59,29.84,29.50,6,0,11,0.12
2013-2-26,48.7,37.0,32.0,42.8,27.4,21.7,96,71,37,29.93,29.71,8,1,14,0.00
2013-2-27,42.6,39.0,34.5,42.4,38.1,27.8,99,97,75,29.72,29.18,12,4,25,1.06
2013-2-28,51.8,38.2,29.8,46.2,36.0,28.9,99,92,71,29.24,29.13,4,0,7,0.01
2013-3-1,50.5,38.2,29.5,36.0,25.4,18.4,99,64,29,29.28,29.13,11,2,18,0.00
2013-3-2,41.7,36.9,33.4,24.0,21.7,19.6,67,54,42,29.29,29.23,8,1,13,0.00
2013-3-3,45.9,35.3,30.9,27.7,21.9,17.7,83,59,36,29.25,29.17,8,1,99,0.00
2013-3-4,43.9,33.8,26.8,23.3,16.7,14.1,72,50,31,29.35,29.21,14,4,24,0.00
2013-3-5,50.5,36.3,28.4,24.9,19.5,16.2,75,52,31,29.66,29.35,8,2,19,0.00
2013-3-6,44.2,35.9,30.4,35.2,30.4,-5.3,93,81,55,30.26,29.60,19,6,34,0.20
2013-3-7,35.2,32.7,30.4,29.4,27.5,25.4,90,81,71,29.92,29.86,23,7,40,0.01
2013-3-8,36.9,33.9,29.3,33.1,29.8,25.1,96,85,64,30.04,29.82,11,3,24,0.00
2013-3-9,53.6,40.3,32.5,25.7,12.8,-3.6,65,36,10,30.15,30.04,14,4,25,0.02
2013-3-10,55.9,40.1,22.3,29.3,23.8,18.3,88,56,25,30.31,30.21,4,1,10,0.00
2013-3-11,59.2,43.7,35.1,36.1,31.2,21.9,82,64,27,30.24,30.07,8,2,17,0.00
2013-3-12,58.8,50.2,39.7,53.6,46.4,35.0,98,88,63,30.07,29.65,9,2,21,0.45
2013-3-13,55.2,43.0,27.5,46.0,22.6,0.7,94,52,11,29.71,29.63,10,2,17,0.01
2013-3-14,38.8,29.9,22.5,21.3,6.4,-4.6,73,40,17,29.75,29.64,14,3,25,0.00
2013-3-15,44.2,31.8,22.3,23.1,3.5,-16.4,64,35,10,29.78,29.57,11,3,22,0.00
2013-3-16,44.6,35.1,25.2,20.5,2.8,-12.6,57,29,10,29.77,29.59,8,1,12,0.00
2013-3-17,41.4,31.4,22.8,11.4,-0.4,-17.1,60,30,10,30.21,29.77,14,2,21,0.00
2013-3-18,42.6,29.2,15.3,20.1,-2.5,-20.7,68,29,10,30.36,30.09,8,1,11,0.00
2013-3-19,36.7,32.4,28.0,33.0,28.2,20.1,88,84,69,30.10,29.50,14,4,30,0.38
2013-3-20,44.2,32.3,23.7,27.5,12.4,-2.2,87,49,15,29.72,29.60,11,2,20,0.01
2013-3-21,39.2,30.6,21.9,21.3,16.1,9.2,73,56,31,29.73,29.52,9,1,14,0.00
2013-3-22,42.8,33.3,23.5,18.8,9.6,-1.3,67,38,16,29.67,29.53,7,3,16,0.00
2013-3-23,45.7,35.7,27.1,17.2,7.3,-8.4,59,34,10,29.72,29.59,14,3,27,0.00
2013-3-24,53.8,39.0,28.2,16.1,7.9,-4.4,56,32,10,29.75,29.62,11,2,20,0.00
2013-3-25,44.8,34.2,27.0,24.8,19.1,15.9,70,55,35,29.69,29.40,13,3,25,0.00
2013-3-26,50.9,40.3,35.2,21.9,15.9,1.7,56,38,13,29.62,29.44,9,2,14,0.00
2013-3-27,57.4,40.9,24.8,21.5,13.5,-2.9,64,38,10,29.78,29.67,5,2,10,0.56
2013-3-28,51.6,42.7,35.2,29.5,21.6,8.5,74,46,18,29.94,29.78,11,2,19,0.48
2013-3-29,62.1,46.4,30.4,30.7,15.9,0.1,74,37,10,29.98,29.89,8,1,14,0.00
2013-3-30,62.2,47.5,32.5,23.7,9.8,-9.1,58,27,10,30.02,29.92,11,2,19,0.00
2013-3-31,62.2,44.1,25.2,37.5,14.9,-0.4,76,39,10,30.03,29.62,13,2,24,0.07
2013-4-1,65.3,47.6,33.3,40.4,28.0,-3.4,80,52,19,29.72,29.44,19,2,30,0.20
2013-4-2,44.2,34.3,27.3,6.9,-3.2,-14.8,40,21,10,29.88,29.73,13,3,25,0.00
2013-4-3,48.0,37.0,29.5,6.6,-4.4,-14.4,37,18,10,30.09,29.87,13,4,25,0.00
2013-4-4,59.4,41.7,26.6,18.4,2.5,-9.3,45,22,10,30.22,29.99,10,3,17,0.00
2013-4-5,64.9,50.0,37.6,23.4,6.7,-4.4,52,20,10,29.98,29.55,12,4,26,0.00
2013-4-6,52.2,39.4,26.8,16.3,-3.6,-17.2,42,18,10,30.24,29.80,12,3,22,0.00
2013-4-7,56.5,41.6,23.2,34.6,13.6,-4.4,62,36,10,30.24,29.93,13,3,23,0.00
2013-4-8,72.3,55.3,43.7,38.4,26.1,6.1,75,42,10,30.00,29.88,7,2,14,0.00
2013-4-9,77.0,59.8,46.6,44.1,28.4,8.9,73,38,10,29.99,29.78,12,2,24,0.00
2013-4-10,73.2,56.3,45.7,41.6,36.2,26.8,75,51,19,29.93,29.76,8,1,11,0.22
2013-4-11,59.4,49.3,41.5,41.7,30.3,6.2,78,53,17,30.04,29.74,11,2,18,0.00
2013-4-12,41.5,39.1,37.2,31.7,27.4,-14.1,78,64,42,30.06,29.68,15,4,29,0.33
2013-4-13,58.5,45.2,35.8,31.9,24.8,7.8,78,51,14,29.85,29.64,12,2,21,0.05
2013-4-14,57.9,44.1,33.6,35.9,16.4,-2.9,74,40,10,30.14,29.84,11,2,19,0.00
2013-4-15,64.9,45.8,27.7,26.9,14.1,1.0,68,35,10,30.31,30.14,6,1,10,0.00
2013-4-16,68.9,51.5,31.5,40.5,27.4,12.3,72,45,12,30.32,30.01,13,3,21,0.00
2013-4-17,72.9,59.7,42.4,44.6,21.9,-1.2,66,30,10,30.25,30.00,10,2,19,0.01
2013-4-18,68.9,51.6,32.9,35.9,18.5,0.3,70,36,10,30.33,30.07,8,2,19,0.00
2013-4-19,72.9,62.6,52.0,58.5,50.8,35.9,83,67,41,30.06,29.61,15,4,28,0.04
2013-4-20,63.9,54.5,43.3,57.9,29.0,4.0,83,46,13,30.15,29.54,13,3,22,0.52
2013-4-21,59.2,44.3,32.2,19.2,4.5,-7.7,53,22,10,30.58,30.15,10,2,19,0.00
2013-4-22,57.0,42.8,27.9,27.9,13.2,-2.9,70,37,10,30.64,30.48,14,3,24,0.00
2013-4-23,42.1,40.4,37.8,34.9,30.2,19.7,76,68,45,30.48,30.00,14,5,27,0.02
2013-4-24,78.1,55.8,40.8,40.8,30.0,11.9,76,47,10,30.00,29.75,13,4,27,0.00
2013-4-25,68.2,55.1,38.5,45.0,19.6,-4.4,73,33,10,30.19,29.77,14,3,21,0.02
2013-4-26,68.9,49.4,29.8,27.1,13.9,-0.1,64,31,10,30.33,30.18,9,1,13,0.00
2013-4-27,70.0,50.9,31.8,35.7,17.7,3.4,69,35,10,30.33,30.21,8,1,12,0.00
2013-4-28,74.8,55.8,33.4,36.7,18.2,5.0,69,33,10,30.25,30.14,8,1,14,0.00
2013-4-29,73.0,57.1,42.8,35.2,16.0,-2.5,63,28,10,30.20,30.13,5,1,10,0.00
2013-4-30,76.1,55.4,38.7,22.0,6.6,-4.0,49,16,10,30.27,30.17,5,1,10,0.00
2013-5-1,76.8,55.4,31.6,29.9,16.8,3.5,59,29,10,30.39,30.27,11,1,16,0.00
2013-5-2,83.1,59.0,37.8,34.9,21.6,2.1,68,32,10,30.39,30.23,15,2,22,0.00
2013-5-3,64.6,51.9,41.4,29.2,23.2,13.9,58,35,14,30.42,30.30,14,3,27,0.00
2013-5-4,66.7,50.5,33.8,35.7,16.8,-5.4,69,34,10,30.30,30.20,17,2,30,0.00
2013-5-5,70.7,50.3,31.8,32.0,18.7,4.2,66,36,10,30.24,30.14,10,2,17,0.00
2013-5-6,78.8,58.8,41.4,34.9,25.7,10.8,62,35,10,30.20,30.06,7,1,14,0.00
2013-5-7,81.9,62.8,40.3,42.1,31.2,14.4,69,38,10,30.10,30.01,8,1,11,0.00
2013-5-8,74.3,61.8,52.5,55.5,49.6,41.4,81,66,38,30.11,29.96,7,1,15,0.30
2013-5-9,75.4,60.6,56.7,59.2,53.6,46.6,84,78,36,29.97,29.79,4,0,7,0.34
2013-5-10,86.4,69.3,55.4,58.6,41.7,18.8,87,46,10,29.89,29.82,8,1,14,0.01
2013-5-11,72.3,63.3,57.6,55.7,51.1,42.7,80,65,44,29.85,29.62,12,2,20,0.09
2013-5-12,76.5,62.2,46.0,55.7,39.9,6.9,81,51,12,29.75,29.50,12,2,26,0.04
2013-5-13,63.3,49.6,34.3,31.1,10.0,-3.6,67,25,10,29.96,29.75,10,2,17,0.00
2013-5-14,60.4,48.4,33.3,27.4,11.2,-2.4,65,29,10,29.99,29.91,8,1,14,0.00
2013-5-15,67.8,50.9,29.7,45.5,25.6,4.1,71,47,10,29.99,29.62,9,2,22,0.02
2013-5-16,85.5,67.0,47.8,51.1,30.0,13.2,78,36,10,29.74,29.58,13,2,26,0.01
2013-5-17,75.0,59.9,44.4,42.3,23.6,7.5,70,33,10,30.14,29.73,8,2,17,0.00
2013-5-18,77.2,60.4,39.6,41.8,25.4,10.5,71,34,10,30.23,30.14,8,1,17,0.00
2013-5-19,73.8,59.0,44.6,48.5,37.8,23.5,76,50,17,30.27,30.14,8,1,14,0.09
2013-5-20,88.0,70.2,55.9,59.1,51.5,41.3,81,57,21,30.14,29.85,7,1,12,0.12
2013-5-21,91.4,69.0,52.5,65.7,53.5,45.5,82,62,24,29.90,29.75,12,1,22,0.12
2013-5-22,82.8,63.5,50.9,60.0,51.7,44.0,79,67,44,29.94,29.78,9,1,15,0.02
2013-5-23,77.4,67.7,59.2,62.5,58.8,51.8,86,74,54,29.85,29.73,11,2,22,0.19
2013-5-24,73.8,63.0,48.4,63.0,56.4,42.8,89,79,60,29.75,29.58,7,1,16,0.44
2013-5-25,53.4,47.6,41.4,45.5,40.8,32.9,83,77,68,29.75,29.65,8,2,16,0.20
2013-5-26,62.6,49.7,40.5,34.4,29.8,17.8,76,49,18,30.06,29.67,12,3,23,0.02
2013-5-27,76.8,57.6,37.4,40.3,22.6,7.5,78,37,10,30.09,30.00,11,2,21,0.00
2013-5-28,82.6,61.7,39.6,47.6,28.4,12.9,73,38,10,30.16,30.09,7,1,11,0.00
2013-5-29,84.2,67.1,57.6,59.3,53.5,47.3,79,64,34,30.11,29.93,10,0,18,0.44
2013-5-30,94.1,83.0,62.2,66.3,55.5,45.8,88,44,21,30.03,29.95,7,1,14,0.18
2013-5-31,97.2,81.9,64.4,63.9,54.0,37.6,82,45,14,30.03,29.88,7,1,14,0.00
2013-6-1,92.7,78.7,63.1,62.0,54.2,44.3,77,47,20,29.93,29.82,9,2,16,0.00
2013-6-2,88.7,76.9,67.6,59.3,55.9,47.0,72,51,25,29.84,29.70,14,3,30,0.00
2013-6-3,83.8,69.9,59.0,62.6,58.3,47.9,81,68,37,29.78,29.69,5,0,9,0.63
2013-6-4,76.8,62.5,47.1,47.4,29.4,12.2,74,36,10,30.02,29.75,8,1,17,0.01
2013-6-5,83.1,63.2,45.0,46.7,30.7,12.5,75,39,10,30.12,30.02,6,1,12,0.00
2013-6-6,78.3,63.5,47.7,46.8,38.4,21.9,72,44,13,30.12,30.01,4,0,11,0.01
2013-6-7,61.9,56.7,54.0,54.3,50.0,46.8,85,78,70,30.02,29.70,9,2,21,1.93
2013-6-8,80.1,64.3,53.2,56.1,51.3,48.4,88,67,35,29.94,29.53,10,2,17,0.48
2013-6-9,84.7,69.4,55.0,55.0,43.1,23.2,82,47,13,30.10,29.94,7,1,14,0.00
2013-6-10,76.1,62.6,51.8,57.1,51.9,44.7,83,69,38,30.12,29.90,5,0,12,0.50
2013-6-11,75.6,62.0,57.7,58.6,55.3,52.9,87,79,52,29.90,29.48,6,1,11,1.12
2013-6-12,74.8,64.7,54.7,56.6,45.2,35.6,87,53,25,29.75,29.50,10,2,22,0.01
2013-6-13,65.5,56.4,48.6,52.2,47.5,41.7,82,72,54,29.75,29.56,9,1,19,0.53
2013-6-14,78.6,60.8,12.2,49.9,44.7,8.6,86,61,23,29.67,29.52,10,3,58,0.90
2013-6-15,83.3,68.4,53.2,48.9,32.6,15.1,76,37,10,29.89,29.72,6,1,10,0.00
2013-6-16,80.4,71.3,48.9,56.7,45.8,32.4,75,43,19,29.89,29.66,6,2,13,0.00
2013-6-17,87.6,72.7,59.2,57.6,49.3,33.6,78,50,15,29.85,29.72,9,1,20,0.08
2013-6-18,87.6,67.3,59.0,61.4,52.8,41.2,83,65,21,29.86,29.77,9,1,25,0.47
2013-6-19,81.9,66.1,53.6,53.4,40.8,17.7,81,49,10,30.07,29.83,8,1,15,0.02
2013-6-20,84.4,67.8,46.9,51.2,34.9,17.1,77,40,10,30.19,30.08,7,1,13,0.00
2013-6-21,86.0,71.6,57.4,51.5,45.7,41.9,65,42,23,30.20,30.13,8,2,12,0.00
2013-6-22,88.5,73.0,61.7,50.4,43.8,32.3,55,38,15,30.17,30.06,8,1,13,0.00
2013-6-23,83.8,70.2,64.2,55.1,49.9,47.2,58,49,35,30.11,30.06,5,1,11,0.00
2013-6-24,95.7,76.2,68.2,65.3,59.9,50.6,79,62,22,29.97,29.83,5,1,11,0.18
2013-6-25,94.5,79.3,66.0,69.3,59.5,49.2,86,57,23,29.89,29.68,8,1,14,0.05
2013-6-26,91.8,76.9,68.0,71.7,62.6,51.9,88,65,27,29.78,29.67,8,1,14,0.15
2013-6-27,75.2,68.3,65.5,65.3,63.5,61.6,91,85,69,29.79,29.67,5,1,11,0.00
2013-6-28,85.5,74.0,65.7,75.2,65.2,60.4,99,77,45,29.67,29.44,8,1,19,0.13
2013-6-29,86.2,75.9,70.5,68.1,62.4,54.2,89,66,36,29.66,29.45,9,2,17,0.00
2013-6-30,89.6,77.7,71.2,65.3,62.8,57.7,80,62,37,29.88,29.66,8,1,16,0.05
2013-7-1,85.8,75.7,71.2,72.0,67.8,64.2,91,78,51,30.02,29.88,8,1,16,0.02
2013-7-2,88.0,77.6,73.0,68.8,66.4,61.6,84,70,44,30.12,30.01,6,1,14,0.00
2013-7-3,90.0,78.9,71.2,67.3,64.8,59.3,84,64,38,30.16,30.08,8,2,16,0.01
2013-7-4,93.9,83.1,73.9,69.8,65.5,59.6,84,58,33,30.15,30.03,8,2,16,0.00
2013-7-5,96.1,84.7,72.7,67.0,63.5,54.3,79,52,26,30.10,29.98,9,2,14,0.00
2013-7-6,96.1,83.8,72.3,69.8,63.6,53.4,82,55,25,30.02,29.92,7,1,13,0.00
2013-7-7,97.3,82.6,70.2,71.3,64.9,54.9,87,59,27,29.96,29.83,6,0,11,0.00
2013-7-8,94.3,81.4,69.8,70.1,62.5,50.8,83,57,24,29.98,29.84,7,1,12,0.90
2013-7-9,84.7,72.7,67.1,66.9,63.2,56.7,90,74,43,30.02,29.95,4,0,8,0.01
2013-7-10,89.2,77.0,68.9,71.8,66.1,62.0,88,71,42,29.99,29.72,6,1,13,0.01
2013-7-11,87.3,76.1,70.9,72.3,68.5,60.1,90,79,42,29.79,29.72,4,0,8,0.32
2013-7-12,79.5,71.5,65.7,63.5,54.8,49.4,83,57,38,30.10,29.84,8,2,14,0.00
2013-7-13,80.1,71.7,65.1,69.1,62.8,53.7,85,74,60,30.23,30.11,2,0,6,0.05
2013-7-14,94.3,82.9,73.6,74.1,65.4,56.2,93,60,28,30.22,30.12,4,0,8,0.00
2013-7-15,97.5,83.9,73.2,74.5,65.4,54.5,89,59,26,30.14,30.03,4,0,9,0.00
2013-7-16,97.5,83.5,68.2,70.4,60.6,42.4,89,53,17,30.09,30.03,8,1,14,0.00
2013-7-17,99.0,84.5,69.4,71.1,60.8,46.5,86,52,18,30.11,29.96,5,1,10,0.00
2013-7-18,100.6,85.5,73.8,69.8,62.8,45.4,74,51,18,29.96,29.87,6,0,11,0.00
2013-7-19,97.3,84.7,74.5,71.9,66.9,57.4,83,58,28,29.88,29.67,9,2,18,0.00
2013-7-20,95.7,83.3,71.8,71.4,66.8,59.4,79,59,31,29.75,29.59,8,1,17,0.05
2013-7-21,92.8,78.7,67.6,64.8,56.0,37.3,80,51,15,29.91,29.75,5,0,8,0.00
2013-7-22,91.0,76.7,65.1,66.4,60.0,50.5,83,60,27,29.93,29.79,6,0,11,0.00
2013-7-23,90.5,75.7,71.6,72.7,67.5,61.6,89,77,41,29.79,29.47,8,1,15,1.05
2013-7-24,89.6,78.3,68.2,75.7,60.8,46.6,98,60,28,29.85,29.51,7,1,12,0.01
2013-7-25,69.4,60.8,58.6,54.2,47.8,38.0,82,64,43,30.00,29.85,8,1,14,0.65
2013-7-26,76.5,64.9,59.7,60.0,56.9,54.2,86,76,53,29.96,29.88,7,1,14,0.18
2013-7-27,88.5,72.9,59.9,66.2,55.3,42.8,92,60,23,29.99,29.93,5,1,10,0.00
2013-7-28,94.1,75.7,65.5,64.0,58.6,46.2,81,59,21,29.93,29.87,4,0,9,0.00
2013-7-29,90.5,76.2,65.8,66.9,60.8,53.3,82,62,32,29.97,29.89,6,1,13,0.01
2013-7-30,86.9,72.3,59.5,59.0,48.4,29.6,83,50,14,30.03,29.96,6,1,14,0.00
2013-7-31,89.8,72.8,57.2,60.0,48.8,31.3,82,50,13,30.07,29.96,6,0,14,0.00
2013-8-1,86.0,70.4,59.4,64.8,54.2,43.6,83,60,23,29.98,29.79,6,1,12,0.01
2013-8-2,86.4,73.5,64.4,66.4,54.2,38.0,85,56,19,29.80,29.72,8,1,16,0.18
2013-8-3,82.2,70.1,61.0,60.9,54.6,48.1,81,60,32,29.80,29.72,7,1,14,0.01
2013-8-4,83.7,69.1,56.5,56.8,45.1,28.2,80,49,15,29.82,29.72,7,1,13,0.00
2013-8-5,81.3,65.7,52.3,52.3,35.4,14.4,78,43,10,29.98,29.82,8,1,15,0.00
2013-8-6,87.4,67.1,46.6,51.4,35.5,18.2,79,42,10,30.08,29.98,5,0,8,0.00
2013-8-7,84.7,68.7,51.6,55.9,41.4,20.2,78,45,10,30.11,30.04,5,1,9,0.00
2013-8-8,83.7,73.0,65.3,64.9,59.7,50.6,80,64,44,30.05,29.95,7,1,13,0.05
2013-8-9,77.5,73.9,71.2,74.1,68.1,63.3,93,82,71,29.96,29.69,7,1,14,0.78
2013-8-10,88.0,74.4,58.5,72.2,52.7,26.3,94,56,13,29.95,29.73,8,1,17,0.00
2013-8-11,85.5,68.0,50.4,56.0,39.5,19.1,80,45,10,30.02,29.94,8,1,12,0.00
2013-8-12,87.8,71.4,57.6,62.5,47.6,29.8,81,50,14,29.97,29.85,6,0,9,0.00
2013-8-13,83.3,68.0,60.8,64.4,57.0,49.5,82,69,33,29.86,29.63,4,0,9,0.01
2013-8-14,77.4,67.2,55.0,60.7,42.1,29.7,82,45,19,29.91,29.61,9,2,18,0.00
2013-8-15,81.5,65.0,50.7,54.4,38.6,16.6,80,48,10,30.06,29.91,8,1,13,0.00
2013-8-16,84.4,67.1,49.5,57.0,39.9,19.6,79,47,10,30.14,30.05,8,1,15,0.00
2013-8-17,88.5,61.3,52.7,53.3,47.4,25.0,78,65,10,30.21,30.14,2,0,6,0.00
2013-8-18,86.4,68.4,55.9,59.0,49.7,23.8,79,58,12,30.21,30.02,2,0,5,0.02
2013-8-19,85.8,70.6,57.2,61.1,50.1,29.2,81,54,15,30.02,29.90,6,1,11,0.01
2013-8-20,89.6,74.7,61.5,62.1,49.6,25.7,80,50,13,30.03,29.91,5,0,11,0.00
2013-8-21,91.8,75.0,59.4,64.2,51.5,31.6,84,52,13,30.08,29.96,5,1,9,0.00
2013-8-22,88.3,73.6,62.1,64.9,59.7,55.2,80,63,34,29.98,29.77,6,1,12,0.00
2013-8-23,84.9,73.2,60.3,63.7,50.3,30.3,81,49,16,30.04,29.75,8,1,16,0.00
2013-8-24,84.9,66.4,51.4,46.4,34.9,16.6,73,39,10,30.27,30.03,8,1,14,0.00
2013-8-25,87.4,68.0,50.4,56.7,37.5,19.6,80,44,10,30.30,30.12,7,1,11,0.00
2013-8-26,83.3,68.1,62.2,60.5,51.7,47.8,74,56,32,30.13,29.81,5,1,11,0.05
2013-8-27,87.8,73.4,66.9,67.4,62.5,56.6,86,71,36,29.82,29.75,4,0,9,0.33
2013-8-28,93.6,75.8,61.7,66.9,57.6,41.1,89,60,17,29.86,29.77,4,0,8,0.00
2013-8-29,70.0,65.3,60.3,61.6,57.9,53.0,84,77,69,29.99,29.86,8,2,14,0.00
2013-8-30,86.0,69.9,60.3,63.4,56.1,51.8,80,64,32,29.96,29.77,7,1,11,0.00
2013-8-31,81.7,74.7,69.4,66.8,65.2,62.8,84,73,56,29.77,29.73,5,1,12,0.00
2013-9-1,84.2,74.8,69.1,72.3,67.2,-13.6,87,78,62,29.80,29.73,5,0,98,0.08
2013-9-2,81.9,75.0,70.5,72.2,68.3,64.3,94,81,59,29.78,29.66,4,0,11,0.31
2013-9-3,84.2,72.6,60.6,67.8,62.0,54.1,90,71,39,29.75,29.63,5,0,8,0.01
2013-9-4,83.5,67.7,56.1,56.5,46.2,30.0,84,53,15,29.86,29.75,6,1,14,0.01
2013-9-5,66.9,58.9,56.1,60.2,52.3,49.2,82,79,75,29.89,29.81,2,0,4,0.04
2013-9-6,71.1,55.7,41.5,51.4,29.1,9.0,79,48,10,30.16,30.04,4,0,8,0.00
2013-9-7,80.8,62.5,43.5,45.5,34.1,17.9,78,44,10,30.03,29.82,4,1,8,0.00
2013-9-8,80.2,60.1,46.8,52.6,34.3,9.3,74,42,10,30.02,29.69,6,1,16,0.00
2013-9-9,72.0,50.0,38.8,47.4,32.6,9.9,77,58,10,30.17,30.02,4,0,6,0.00
2013-9-10,77.0,66.6,51.8,65.0,55.6,40.8,81,68,56,30.09,29.97,8,2,21,0.02
2013-9-11,98.4,81.7,70.5,71.6,64.0,53.2,88,59,24,30.02,29.90,7,2,16,0.00
2013-9-12,89.2,77.4,69.1,68.3,62.3,55.8,85,62,33,29.91,29.61,14,2,21,0.21
2013-9-13,85.5,71.0,60.3,70.6,57.1,27.1,88,65,29,29.68,29.50,6,0,16,0.06
2013-9-14,71.6,60.7,51.6,49.3,42.1,34.3,75,54,27,29.98,29.68,7,1,13,0.00
2013-9-15,75.9,59.1,45.1,54.4,36.3,13.7,82,51,10,30.10,29.98,6,0,11,0.00
2013-9-16,73.4,58.9,52.5,50.6,43.5,26.2,74,59,27,30.12,29.95,6,0,11,0.02
2013-9-17,66.4,51.7,40.1,33.9,20.5,5.7,68,36,10,30.34,30.17,8,1,16,0.00
2013-9-18,77.0,53.8,36.3,45.9,31.4,11.2,78,51,10,30.26,30.07,4,0,9,0.00
2013-9-19,84.4,62.2,46.6,45.7,33.8,17.7,73,45,10,30.08,29.96,6,0,11,0.00
2013-9-20,86.4,63.8,44.4,54.8,35.5,18.7,79,46,10,30.02,29.93,4,0,8,0.00
2013-9-21,78.4,65.8,52.5,58.9,50.3,42.7,79,60,29,29.96,29.64,8,1,17,0.01
2013-9-22,75.6,65.3,49.1,63.0,45.4,20.2,80,54,17,29.76,29.54,8,2,17,0.35
2013-9-23,63.7,56.7,42.1,35.6,24.7,19.3,70,35,18,29.86,29.76,7,0,11,0.00
2013-9-24,72.3,62.1,12.4,51.1,30.5,-33.7,93,36,10,30.11,29.86,7,1,14,0.00
2013-9-25,76.1,57.3,41.7,55.8,47.6,40.8,99,74,39,30.02,29.91,6,1,14,0.00
2013-9-26,72.1,57.4,47.5,51.0,48.6,44.6,97,75,39,30.15,30.02,5,0,12,0.00
2013-9-27,66.4,56.7,46.8,53.9,51.5,46.0,98,84,59,30.31,30.15,6,0,13,0.00
2013-9-28,78.6,57.1,39.7,60.4,49.2,39.5,99,79,40,30.36,30.30,7,0,13,0.00
2013-9-29,76.1,55.0,40.8,58.1,46.3,40.3,99,78,30,30.31,30.16,6,0,11,0.00
2013-9-30,61.0,49.7,46.6,54.4,48.9,45.8,99,97,69,30.16,30.10,3,0,6,0.00
2013-10-1,82.6,60.4,44.8,61.4,53.3,44.5,99,82,30,30.00,29.90,5,0,8,0.00
2013-10-2,84.2,64.5,52.2,61.8,56.6,51.7,99,80,43,30.01,29.90,8,1,100,0.00
2013-10-3,84.0,61.5,45.7,62.8,49.3,35.7,99,73,21,30.14,30.00,5,0,11,0.00
2013-10-4,66.7,54.7,46.2,59.7,53.4,45.7,99,96,72,30.14,30.08,4,0,8,0.41
2013-10-5,73.4,62.6,55.9,63.9,59.7,55.7,99,91,64,30.16,30.09,4,0,10,0.01
2013-10-6,60.4,57.9,56.1,58.6,57.3,55.9,99,98,91,30.24,30.15,6,1,14,0.30
2013-10-7,77.4,64.0,56.3,73.0,62.2,56.0,99,94,74,30.16,29.89,10,1,27,0.04
2013-10-8,71.8,56.6,42.6,56.7,46.1,38.9,99,74,32,30.40,29.96,4,1,8,0.00
2013-10-9,66.6,51.1,37.6,49.1,42.7,37.3,99,77,41,30.49,30.39,10,1,21,0.00
2013-10-10,65.8,52.5,41.0,54.9,49.2,40.7,99,89,65,30.39,30.20,8,1,13,0.00
2013-10-11,71.8,57.8,47.1,58.6,52.5,45.1,99,84,61,30.20,30.12,9,1,17,0.00
2013-10-12,66.4,54.2,46.8,57.9,52.4,45.8,99,94,72,30.41,30.17,10,2,25,0.00
2013-10-13,61.3,52.0,37.6,51.8,47.5,37.1,98,85,63,30.47,30.38,9,1,17,0.00
2013-10-14,72.5,48.9,30.7,55.1,40.8,30.5,99,79,31,30.44,30.29,4,0,7,0.00
2013-10-15,75.0,55.7,42.4,58.2,48.2,42.2,99,80,39,30.31,30.21,7,0,9,0.00
2013-10-16,63.3,53.1,42.3,58.5,50.8,42.0,99,93,75,30.21,29.95,5,0,9,0.00
2013-10-17,74.3,60.3,49.3,62.1,57.2,49.0,99,91,63,29.95,29.77,5,1,11,0.01
2013-10-18,72.9,60.4,41.7,62.9,50.5,40.5,99,74,37,29.96,29.67,10,2,19,0.01
2013-10-19,69.3,51.5,34.3,52.3,41.2,33.9,99,73,30,30.03,29.79,6,1,10,0.00
2013-10-20,67.3,52.7,36.0,51.3,39.0,25.8,99,67,22,30.07,29.74,10,1,19,0.01
2013-10-21,73.6,50.9,31.8,50.4,37.5,31.1,99,68,24,30.17,30.04,101,1,101,0.00
2013-10-22,71.8,51.7,36.3,58.2,45.1,35.7,99,82,42,30.04,29.74,8,1,20,0.01
2013-10-23,52.0,42.2,31.5,44.5,36.3,31.2,99,82,50,29.84,29.63,3,0,5,0.00
2013-10-24,57.2,42.7,32.2,36.2,29.4,19.3,98,64,26,29.94,29.69,9,1,21,0.00
2013-10-25,54.9,39.7,28.2,34.8,27.6,23.5,92,65,32,30.20,29.93,8,1,18,0.00
2013-10-26,57.6,41.7,25.3,37.9,28.6,19.2,97,66,24,30.21,29.91,12,2,22,0.00
2013-10-27,59.9,46.2,30.9,42.3,33.2,26.3,98,64,33,30.12,29.85,9,2,16,0.02
2013-10-28,63.3,42.5,26.4,38.9,29.6,25.2,99,66,28,30.20,29.94,9,2,18,0.00
2013-10-29,57.4,38.2,26.6,27.4,23.0,16.1,86,59,21,30.21,30.11,7,0,11,0.00
2013-10-30,58.5,40.2,26.8,43.3,34.8,22.9,97,82,53,30.14,29.96,7,0,14,0.00
2013-10-31,62.1,48.1,30.4,60.7,46.7,30.1,99,95,84,30.01,29.57,10,1,54,0.06
2013-11-1,69.3,62.9,58.5,63.7,58.8,54.8,99,87,71,29.57,29.25,14,4,32,0.20
2013-11-2,74.3,56.1,44.8,55.3,45.0,33.1,99,72,24,29.50,29.36,6,0,12,0.00
2013-11-3,52.5,42.4,31.6,46.0,30.0,13.6,92,64,33,30.17,29.50,8,1,17,0.00
2013-11-4,49.5,33.0,21.6,18.9,14.4,5.2,84,51,18,30.46,30.17,9,1,17,0.00
2013-11-5,58.1,31.8,21.0,32.8,25.2,17.3,93,79,28,30.47,30.28,4,0,6,0.00
2013-11-6,64.4,49.4,34.7,51.4,41.2,31.4,94,76,41,30.28,29.82,9,2,15,0.00
2013-11-7,68.0,53.8,38.7,59.6,50.8,27.7,99,90,63,29.83,29.46,11,2,21,0.24
2013-11-8,52.2,38.0,26.8,35.8,26.5,20.1,97,67,34,29.88,29.59,10,2,24,0.00
2013-11-9,49.3,35.0,23.4,29.8,24.6,19.3,96,69,33,29.99,29.80,7,1,17,0.00
2013-11-10,62.6,44.9,36.7,45.2,36.7,28.8,99,75,38,29.79,29.51,10,1,21,0.05
2013-11-11,55.2,45.7,36.7,32.8,27.6,21.8,65,50,29,29.88,29.66,14,3,30,0.00
2013-11-12,49.5,35.9,24.6,39.2,25.8,6.3,95,68,50,29.95,29.65,9,2,24,0.08
2013-11-13,41.4,25.0,19.2,16.0,14.2,5.5,83,65,26,30.05,29.94,8,1,13,0.00
2013-11-14,55.0,40.1,27.9,21.7,17.3,11.8,62,42,21,29.94,29.82,8,2,16,0.00
2013-11-15,63.5,46.1,34.0,34.0,18.7,1.2,87,39,10,29.98,29.89,10,2,14,0.00
2013-11-16,66.6,45.2,30.7,36.5,32.3,27.8,93,65,29,30.09,29.95,8,1,13,0.00
2013-11-17,60.4,47.0,30.0,58.9,44.7,28.5,99,92,71,30.07,29.59,4,0,8,0.05
2013-11-18,70.7,59.3,46.0,62.5,47.0,29.9,99,68,31,29.60,29.32,13,3,21,0.17
2013-11-19,48.2,40.4,30.4,30.3,21.7,16.6,60,48,30,30.03,29.44,11,3,25,0.00
2013-11-20,46.4,31.0,18.7,17.8,11.3,-4.3,81,49,13,30.38,30.04,10,2,18,0.00
2013-11-21,52.2,32.4,16.2,35.3,20.3,13.0,91,66,28,30.39,30.14,7,0,11,0.00
2013-11-22,46.8,42.3,40.3,46.5,39.0,35.0,99,88,78,30.14,29.86,4,0,7,0.11
2013-11-23,49.3,40.7,28.4,48.1,25.6,13.0,99,58,24,29.69,29.57,7,3,19,0.01
2013-11-24,30.0,23.4,19.2,16.8,-1.9,-15.1,66,34,14,29.97,29.59,15,5,38,0.00
2013-11-25,37.8,24.9,14.2,19.7,2.2,-18.6,59,40,10,30.13,29.97,11,2,18,0.00
2013-11-26,41.2,34.5,31.5,22.3,19.8,16.1,62,55,37,30.08,30.02,8,3,17,0.00
2013-11-27,62.1,49.7,35.2,61.8,49.2,32.3,99,98,89,29.74,29.00,8,2,14,1.16
2013-11-28,36.0,29.7,21.0,31.7,15.1,4.7,85,57,28,30.20,29.28,8,2,19,0.01
2013-11-29,42.4,27.4,18.3,18.3,12.6,7.1,82,56,29,30.48,30.21,4,1,7,0.00
2013-11-30,38.5,23.6,10.0,20.9,12.4,6.4,89,65,33,30.54,30.17,5,0,8,0.00
2013-12-1,39.9,34.1,27.3,38.8,32.3,21.1,99,93,77,30.16,29.77,2,0,3,0.09
2013-12-2,47.8,37.4,32.4,44.2,36.7,32.1,99,97,84,29.77,29.67,3,0,6,0.00
2013-12-3,56.1,38.8,29.1,40.6,33.8,28.2,99,85,42,29.72,29.60,8,1,13,0.01
2013-12-4,53.4,31.1,26.4,35.1,28.5,25.2,99,92,37,29.96,29.72,4,0,6,0.00
2013-12-5,55.9,43.1,29.7,55.7,41.6,28.7,99,95,87,29.95,29.69,8,0,16,0.00
2013-12-6,56.7,50.5,35.8,56.4,49.5,35.5,99,96,89,29.86,29.62,8,1,14,0.06
2013-12-7,44.6,33.4,25.2,35.9,28.6,20.6,99,84,48,30.22,29.83,9,1,17,0.07
2013-12-8,32.4,26.7,18.3,27.4,19.1,13.8,97,74,50,30.35,30.21,7,0,11,0.00
2013-12-9,36.0,31.3,24.4,35.5,30.2,17.1,99,96,63,30.24,29.66,7,1,12,0.11
2013-12-10,33.8,29.8,18.9,33.6,29.5,18.2,99,98,95,29.78,29.54,1,0,8,0.00
2013-12-11,31.3,23.8,16.7,22.1,19.2,16.3,99,83,68,29.99,29.77,0,0,0,0.00
2013-12-12,30.4,18.4,7.3,18.1,8.2,-1.8,89,68,28,30.03,29.83,8,0,16,0.00
2013-12-13,22.6,14.7,9.9,9.8,7.5,5.7,85,73,57,29.83,29.77,8,2,16,0.00
2013-12-14,23.0,16.2,11.5,22.5,11.7,-2.8,98,83,45,30.32,29.85,11,3,21,0.00
2013-12-15,34.9,27.1,18.0,34.6,26.1,17.2,99,96,90,29.84,29.16,15,2,30,0.00
2013-12-16,33.1,20.8,5.4,23.4,12.6,2.6,98,74,37,29.95,29.50,0,0,0,0.00
2013-12-17,19.6,8.9,-4.0,18.2,6.5,-7.0,95,90,83,30.01,29.66,0,0,0,0.00
2013-12-18,39.6,25.6,17.1,22.9,19.4,15.2,95,79,47,29.86,29.62,8,1,17,0.05
2013-12-19,47.5,31.9,19.0,28.4,23.3,16.9,93,73,39,29.88,29.71,12,2,23,0.05
2013-12-20,60.1,40.3,26.8,39.6,31.6,25.6,96,74,36,29.88,29.69,8,1,12,0.00
2013-12-21,63.0,50.0,41.4,51.6,45.0,35.4,99,84,59,29.75,29.64,8,1,14,0.00
2013-12-22,65.3,56.8,39.6,61.8,54.6,38.8,99,92,79,29.76,29.53,13,4,26,0.00
2013-12-23,40.3,36.4,34.2,40.0,36.1,33.7,99,99,97,29.85,29.69,6,1,11,0.43
2013-12-24,41.4,33.2,25.3,38.1,23.0,12.0,98,68,38,29.96,29.79,8,2,14,0.01
2013-12-25,28.6,19.1,12.2,13.7,4.2,-1.8,80,53,29,30.29,29.96,11,2,23,0.00
2013-12-26,34.3,25.0,14.2,31.7,20.3,8.9,91,82,73,30.24,29.84,5,0,11,0.00
2013-12-27,40.3,27.1,17.8,23.8,19.9,16.9,97,76,40,30.05,29.95,6,1,14,0.01
2013-12-28,52.5,34.9,25.2,29.1,24.6,20.6,88,69,32,29.99,29.77,13,2,21,0.01
2013-12-29,130.1,36.1,28.2,39.8,33.1,24.8,99,89,59,29.80,29.14,13,2,23,0.72
2013-12-30,38.7,31.0,17.1,37.9,23.2,8.4,99,75,42,29.90,29.29,10,1,17,0.00
2013-12-31,30.6,18.7,12.6,15.1,9.6,1.9,90,70,32,29.95,29.77,7,1,13,0.00
2014-1-1,33.4,21.4,10.2,14.6,8.6,4.2,86,59,32,30.12,29.95,8,1,14,0.00
2014-1-2,20.8,13.6,2.1,17.2,10.9,-0.8,93,88,73,30.09,29.53,15,4,28,0.00